createdAt,value
2023-01-28T00:00:51.121Z,19.55
2023-01-28T00:03:17.705Z,23.60
2023-01-28T00:05:44.541Z,24.02
2023-01-28T00:08:11.825Z,22.15
2023-01-28T00:10:39.783Z,24.83
2023-01-28T00:13:11.581Z,22.38
2023-01-28T00:15:38.116Z,23.35
2023-01-28T00:18:04.777Z,22.90
2023-01-28T00:20:31.709Z,26.40
2023-01-28T00:22:58.489Z,23.60
2023-01-28T00:25:25.000Z,26.80
2023-01-28T00:27:51.661Z,26.10
2023-01-28T00:30:19.408Z,29.40
2023-01-28T00:32:45.922Z,29.17
2023-01-28T00:35:13.613Z,22.38
2023-01-28T00:37:40.387Z,21.58
2023-01-28T00:40:09.901Z,20.50
2023-01-28T00:42:37.382Z,23.95
2023-01-28T00:45:04.360Z,21.38
2023-01-28T00:47:30.917Z,21.20
2023-01-28T00:49:58.001Z,22.92
2023-01-28T00:52:24.577Z,22.10
2023-01-28T00:54:51.082Z,22.95
2023-01-28T00:57:17.645Z,22.30
2023-01-28T00:59:44.659Z,28.00
2023-01-28T01:02:14.168Z,23.08
2023-01-28T01:04:41.168Z,23.80
2023-01-28T01:07:07.759Z,18.17
2023-01-28T01:09:34.410Z,24.70
2023-01-28T01:12:00.984Z,20.67
2023-01-28T01:14:27.458Z,22.40
2023-01-28T01:16:53.960Z,23.77
2023-01-28T01:19:20.470Z,21.27
2023-01-28T01:21:50.603Z,20.73
2023-01-28T01:24:17.669Z,24.95
2023-01-28T01:26:44.641Z,20.65
2023-01-28T01:29:11.215Z,20.38
2023-01-28T01:31:37.840Z,23.17
2023-01-28T01:34:04.486Z,22.77
2023-01-28T01:36:31.306Z,19.77
2023-01-28T01:38:58.035Z,20.65
2023-01-28T01:41:29.184Z,23.45
2023-01-28T01:44:01.461Z,21.37
2023-01-28T01:46:42.167Z,23.77
2023-01-28T01:49:20.199Z,24.05
2023-01-28T01:51:49.105Z,23.88
2023-01-28T01:54:16.898Z,21.67
2023-01-28T01:56:45.184Z,18.33
2023-01-28T01:59:14.324Z,19.27
2023-01-28T02:01:41.670Z,18.50
2023-01-28T02:04:27.021Z,21.63
2023-01-28T02:06:53.606Z,18.65
2023-01-28T02:09:38.428Z,20.48
2023-01-28T02:12:16.162Z,21.02
2023-01-28T02:14:46.620Z,19.75
2023-01-28T02:17:13.651Z,17.13
2023-01-28T02:20:04.191Z,20.48
2023-01-28T02:22:52.347Z,18.15
2023-01-28T02:25:41.482Z,17.58
2023-01-28T02:28:18.079Z,19.77
2023-01-28T02:30:53.372Z,16.92
2023-01-28T02:33:24.497Z,23.35
2023-01-28T02:35:53.695Z,15.90
2023-01-28T02:38:21.392Z,14.95
2023-01-28T02:41:05.930Z,21.40
2023-01-28T02:43:42.666Z,19.60
2023-01-28T02:46:32.799Z,20.58
2023-01-28T02:48:59.426Z,18.50
2023-01-28T02:51:54.226Z,21.17
2023-01-28T02:54:32.859Z,19.80
2023-01-28T02:57:17.295Z,20.65
2023-01-28T03:00:08.590Z,21.35
2023-01-28T03:03:18.651Z,23.20
2023-01-28T03:06:21.242Z,21.05
2023-01-28T03:11:55.897Z,17.02
2023-01-28T03:14:40.883Z,19.77
2023-01-28T03:17:32.824Z,18.88
2023-01-28T03:20:17.844Z,21.58
2023-01-28T03:23:07.737Z,20.75
2023-01-28T03:25:53.461Z,17.27
2023-01-28T03:28:39.261Z,19.73
2023-01-28T03:31:31.384Z,17.90
2023-01-28T03:34:18.203Z,14.85
2023-01-28T03:36:51.750Z,16.02
2023-01-28T03:39:22.821Z,17.40
2023-01-28T03:42:00.571Z,17.13
2023-01-28T03:44:45.792Z,15.10
2023-01-28T03:47:12.524Z,14.45
2023-01-28T03:49:44.653Z,14.82
2023-01-28T03:54:38.921Z,13.65
2023-01-28T03:57:06.218Z,16.30
2023-01-28T03:59:33.424Z,14.65
2023-01-28T04:02:00.245Z,14.93
2023-01-28T04:04:26.856Z,12.95
2023-01-28T04:06:54.797Z,11.55
2023-01-28T04:09:22.254Z,11.95
2023-01-28T04:11:50.954Z,13.40
2023-01-28T04:14:18.386Z,12.02
2023-01-28T04:16:45.133Z,13.43
2023-01-28T04:19:15.314Z,11.45
2023-01-28T04:21:42.161Z,10.60
2023-01-28T04:24:08.887Z,11.15
2023-01-28T04:26:35.665Z,9.13
2023-01-28T04:29:02.759Z,10.13
2023-01-28T04:31:29.348Z,9.32
2023-01-28T04:33:55.953Z,9.63
2023-01-28T04:36:22.540Z,9.50
2023-01-28T04:38:49.117Z,10.43
2023-01-28T04:41:15.686Z,11.77
2023-01-28T04:43:42.271Z,8.27
2023-01-28T04:46:09.108Z,9.93
2023-01-28T04:48:36.549Z,8.68
2023-01-28T04:51:04.539Z,8.60
2023-01-28T04:53:31.165Z,10.38
2023-01-28T04:55:58.232Z,10.02
2023-01-28T04:58:25.248Z,12.55
2023-01-28T05:00:59.153Z,10.57
2023-01-28T05:03:26.147Z,12.98
2023-01-28T05:05:52.650Z,13.00
2023-01-28T05:08:19.176Z,10.88
2023-01-28T05:10:45.952Z,14.98
2023-01-28T05:13:12.561Z,10.25
2023-01-28T05:15:39.140Z,10.27
2023-01-28T05:18:05.960Z,13.45
2023-01-28T05:20:32.582Z,14.77
2023-01-28T05:22:59.214Z,12.13
2023-01-28T05:25:27.700Z,10.65
2023-01-28T05:27:54.536Z,9.85
2023-01-28T05:30:21.682Z,13.40
2023-01-28T05:32:48.405Z,13.40
2023-01-28T05:35:15.461Z,12.35
2023-01-28T05:37:42.197Z,14.00
2023-01-28T05:40:09.474Z,9.45
2023-01-28T05:42:36.024Z,12.18
2023-01-28T05:45:02.544Z,10.63
2023-01-28T05:47:29.175Z,12.23
2023-01-28T05:49:55.717Z,13.88
2023-01-28T05:52:22.371Z,15.43
2023-01-28T05:54:48.916Z,15.45
2023-01-28T05:57:15.443Z,12.15
2023-01-28T05:59:41.956Z,12.55
2023-01-28T06:02:08.511Z,13.90
2023-01-28T06:04:35.041Z,12.65
2023-01-28T06:07:01.608Z,14.00
2023-01-28T06:09:28.136Z,13.60
2023-01-28T06:11:54.644Z,13.30
2023-01-28T06:14:21.176Z,13.02
2023-01-28T06:16:47.691Z,14.13
2023-01-28T06:19:14.204Z,16.30
2023-01-28T06:21:40.684Z,16.70
2023-01-28T06:24:07.379Z,12.10
2023-01-28T06:26:33.916Z,14.63
2023-01-28T06:29:00.491Z,13.32
2023-01-28T06:31:27.060Z,14.07
2023-01-28T06:33:53.592Z,12.90
2023-01-28T06:36:20.134Z,16.40
2023-01-28T06:38:46.910Z,15.02
2023-01-28T06:41:13.449Z,11.45
2023-01-28T06:43:39.972Z,15.63
2023-01-28T06:46:06.486Z,11.40
2023-01-28T06:48:33.212Z,12.43
2023-01-28T06:50:59.742Z,13.93
2023-01-28T06:53:26.321Z,13.90
2023-01-28T06:55:52.893Z,13.50
2023-01-28T06:58:19.408Z,10.05
2023-01-28T07:00:45.927Z,10.48
2023-01-28T07:03:12.522Z,12.05
2023-01-28T07:05:39.148Z,12.90
2023-01-28T07:08:05.832Z,10.77
2023-01-28T07:10:32.432Z,11.20
2023-01-28T07:12:58.967Z,13.50
2023-01-28T07:15:25.468Z,12.07
2023-01-28T07:17:52.064Z,9.95
2023-01-28T07:20:18.946Z,13.85
2023-01-28T07:22:46.267Z,10.85
2023-01-28T07:25:14.220Z,14.65
2023-01-28T07:27:49.501Z,12.65
2023-01-28T07:30:17.444Z,19.50
2023-01-28T07:32:44.403Z,19.45
2023-01-28T07:35:11.178Z,16.95
2023-01-28T07:37:37.917Z,15.80
2023-01-28T07:40:05.117Z,15.65
2023-01-28T07:42:31.833Z,17.58
2023-01-28T07:44:58.383Z,15.20
2023-01-28T07:47:24.976Z,16.90
2023-01-28T07:49:51.476Z,16.27
2023-01-28T07:52:17.958Z,15.93
2023-01-28T07:54:44.512Z,15.85
2023-01-28T07:57:11.143Z,17.23
2023-01-28T07:59:37.752Z,14.85
2023-01-28T08:02:04.301Z,16.52
2023-01-28T08:04:30.960Z,15.38
2023-01-28T08:06:57.580Z,16.83
2023-01-28T08:09:24.184Z,14.82
2023-01-28T08:11:50.759Z,17.58
2023-01-28T08:14:17.308Z,15.80
2023-01-28T08:16:43.858Z,13.50
2023-01-28T08:19:10.864Z,17.30
2023-01-28T08:21:37.456Z,15.32
2023-01-28T08:24:04.234Z,13.80
2023-01-28T08:26:30.773Z,18.20
2023-01-28T08:28:57.335Z,14.43
2023-01-28T08:31:24.208Z,17.27
2023-01-28T08:33:50.764Z,15.63
2023-01-28T08:36:17.307Z,14.55
2023-01-28T08:38:43.994Z,12.20
2023-01-28T08:41:10.593Z,12.85
2023-01-28T08:43:37.201Z,13.40
2023-01-28T08:46:07.076Z,13.90
2023-01-28T08:48:33.678Z,13.73
2023-01-28T08:51:00.244Z,13.77
2023-01-28T08:53:26.747Z,13.20
2023-01-28T08:55:54.129Z,14.90
2023-01-28T08:58:20.696Z,13.25
2023-01-28T09:00:48.272Z,12.60
2023-01-28T09:03:15.261Z,12.50
2023-01-28T09:05:42.045Z,13.07
2023-01-28T09:08:13.832Z,13.63
2023-01-28T09:10:42.044Z,13.23
2023-01-28T09:13:10.746Z,11.80
2023-01-28T09:15:37.861Z,12.88
2023-01-28T09:18:06.114Z,12.68
2023-01-28T09:20:33.210Z,16.88
2023-01-28T09:23:00.703Z,10.88
2023-01-28T09:25:27.341Z,12.95
2023-01-28T09:27:53.903Z,14.70
2023-01-28T09:30:20.621Z,13.15
2023-01-28T09:32:51.354Z,14.75
2023-01-28T10:51:41.241Z,9.65
2023-01-28T10:54:26.120Z,10.05
2023-01-28T10:56:58.177Z,9.70
2023-01-28T11:01:57.534Z,10.52
2023-01-28T11:04:25.341Z,8.10
2023-01-28T11:06:58.960Z,9.75
2023-01-28T11:09:31.398Z,9.55
2023-01-28T11:11:59.335Z,8.07
2023-01-28T11:14:27.829Z,8.98
2023-01-28T11:16:56.957Z,8.63
2023-01-28T11:19:29.411Z,10.63
2023-01-28T11:21:57.206Z,9.13
2023-01-28T11:24:27.111Z,10.10
2023-01-28T11:26:56.077Z,6.95
2023-01-28T11:29:25.182Z,8.00
2023-01-28T11:31:51.955Z,9.48
2023-01-28T11:34:19.699Z,10.18
2023-01-28T11:37:12.873Z,9.05
2023-01-28T11:39:39.462Z,8.27
2023-01-28T11:42:16.368Z,9.52
2023-01-28T11:44:43.019Z,8.98
2023-01-28T11:47:31.898Z,11.13
2023-01-28T11:50:36.398Z,12.43
2023-01-28T11:53:27.856Z,10.55
2023-01-28T11:56:04.245Z,8.77
2023-01-28T11:58:46.385Z,8.43
2023-01-28T12:03:56.444Z,9.10
2023-01-28T12:06:59.659Z,7.40
2023-01-28T12:09:36.139Z,7.15
2023-01-28T12:12:30.293Z,8.63
2023-01-28T12:15:02.792Z,7.32
2023-01-28T12:17:42.685Z,8.63
2023-01-28T12:20:21.074Z,9.18
2023-01-28T12:23:05.768Z,11.10
2023-01-28T12:25:43.304Z,10.32
2023-01-28T12:28:51.912Z,10.65
2023-01-28T12:32:03.107Z,11.02
2023-01-28T12:34:32.476Z,9.70
2023-01-28T12:37:44.037Z,9.65
2023-01-28T12:40:26.562Z,12.23
2023-01-28T12:42:57.764Z,8.63
2023-01-28T12:45:50.314Z,9.13
2023-01-28T12:48:24.223Z,9.90
2023-01-28T12:51:02.457Z,9.00
2023-01-28T12:53:32.378Z,8.52
2023-01-28T12:56:06.466Z,9.65
2023-01-28T12:59:01.397Z,9.38
2023-01-28T13:01:38.014Z,10.10
2023-01-28T13:04:18.965Z,14.05
2023-01-28T13:06:49.991Z,10.98
2023-01-28T13:09:25.317Z,7.22
2023-01-28T13:11:53.411Z,11.60
2023-01-28T13:14:29.824Z,8.98
2023-01-28T13:16:56.505Z,10.27
2023-01-28T13:19:25.794Z,9.43
2023-01-28T13:21:52.710Z,10.25
2023-01-28T13:24:21.841Z,9.30
2023-01-28T13:26:52.326Z,8.65
2023-01-28T13:29:24.984Z,7.95
2023-01-28T13:31:57.224Z,11.57
2023-01-28T13:34:38.298Z,8.20
2023-01-28T13:37:34.218Z,7.75
2023-01-28T13:40:24.759Z,10.30
2023-01-28T13:43:06.368Z,9.82
2023-01-28T13:45:33.729Z,8.63
2023-01-28T13:48:08.553Z,11.43
2023-01-28T13:50:40.639Z,13.48
2023-01-28T13:55:46.044Z,11.63
2023-01-28T13:58:42.013Z,12.88
2023-01-28T14:01:38.258Z,13.52
2023-01-28T14:04:36.089Z,13.63
2023-01-28T14:07:44.655Z,14.25
2023-01-28T14:10:41.106Z,13.05
2023-01-28T14:13:26.664Z,12.20
2023-01-28T14:16:24.305Z,13.25
2023-01-28T14:18:51.791Z,12.25
2023-01-28T14:21:22.568Z,13.05
2023-01-28T14:23:51.867Z,13.50
2023-01-28T14:26:42.695Z,13.65
2023-01-28T14:29:14.506Z,14.88
2023-01-28T14:34:19.545Z,10.45
2023-01-28T14:36:46.622Z,13.00
2023-01-28T14:41:50.348Z,9.18
2023-01-28T14:50:00.332Z,10.77
2023-01-28T14:53:04.516Z,10.65
2023-01-28T15:18:13.346Z,10.80
2023-01-28T15:20:47.536Z,9.50
2023-01-28T15:25:43.980Z,12.77
2023-01-28T15:28:18.803Z,12.25
2023-01-28T15:30:48.901Z,12.13
2023-01-28T15:34:46.014Z,10.05
2023-01-28T15:37:13.139Z,10.00
2023-01-28T15:39:39.791Z,10.60
2023-01-28T15:42:07.556Z,9.32
2023-01-28T15:44:44.130Z,11.00
2023-01-28T15:47:18.035Z,11.65
2023-01-28T15:49:49.355Z,11.80
2023-01-28T15:52:15.953Z,12.02
2023-01-28T15:54:49.775Z,7.88
2023-01-28T15:57:18.965Z,9.40
2023-01-28T15:59:47.469Z,11.20
2023-01-28T16:02:23.711Z,10.40
2023-01-28T16:05:04.372Z,10.05
2023-01-28T16:07:33.177Z,9.65
2023-01-28T16:10:02.147Z,11.55
2023-01-28T16:12:29.238Z,8.88
2023-01-28T16:15:01.325Z,7.38
2023-01-28T16:19:59.352Z,9.07
2023-01-28T16:22:36.366Z,10.88
2023-01-28T16:25:04.152Z,8.38
2023-01-28T16:27:33.572Z,10.18
2023-01-28T16:30:01.263Z,8.77
2023-01-28T16:32:29.740Z,9.90
2023-01-28T16:34:56.776Z,10.85
2023-01-28T16:37:23.315Z,9.02
2023-01-28T16:39:49.816Z,8.98
2023-01-28T16:42:16.379Z,7.82
2023-01-28T16:44:42.931Z,9.15
2023-01-28T16:47:09.649Z,8.77
2023-01-28T16:49:36.308Z,9.95
2023-01-28T16:52:03.336Z,6.80
2023-01-28T16:54:30.032Z,8.93
2023-01-28T16:56:57.143Z,11.65
2023-01-28T16:59:23.707Z,8.82
2023-01-28T17:01:50.364Z,9.20
2023-01-28T17:04:16.974Z,6.65
2023-01-28T17:06:45.210Z,8.50
2023-01-28T17:09:13.420Z,7.57
2023-01-28T17:11:40.692Z,7.72
2023-01-28T17:14:07.361Z,8.02
2023-01-28T17:16:33.926Z,7.95
2023-01-28T17:19:00.631Z,8.00
2023-01-28T17:21:27.507Z,7.72
2023-01-28T17:23:54.088Z,7.68
2023-01-28T17:26:20.718Z,9.15
2023-01-28T17:28:52.915Z,10.75
2023-01-28T17:31:19.969Z,9.57
2023-01-28T17:33:46.629Z,7.13
2023-01-28T17:36:14.142Z,8.23
2023-01-28T17:38:44.557Z,6.43
2023-01-28T17:41:11.727Z,6.55
2023-01-28T17:43:38.328Z,6.43
2023-01-28T17:46:15.105Z,6.72
2023-01-28T17:48:42.859Z,7.25
2023-01-28T17:51:10.092Z,7.38
2023-01-28T17:53:36.624Z,8.55
2023-01-28T17:56:03.309Z,6.28
2023-01-28T17:58:29.869Z,7.13
2023-01-28T18:00:56.497Z,10.57
2023-01-28T18:03:23.111Z,10.93
2023-01-28T18:05:59.668Z,7.97
2023-01-28T18:08:26.738Z,9.32
2023-01-28T18:10:55.104Z,7.40
2023-01-28T18:13:22.153Z,6.97
2023-01-28T18:15:48.782Z,7.95
2023-01-28T18:18:15.315Z,7.22
2023-01-28T18:20:41.972Z,7.55
2023-01-28T18:23:08.531Z,7.55
2023-01-28T18:25:35.091Z,6.85
2023-01-28T18:28:01.734Z,7.03
2023-01-28T18:30:30.133Z,9.02
2023-01-28T18:32:56.747Z,7.25
2023-01-28T18:35:23.328Z,6.20
2023-01-28T18:37:49.843Z,5.88
2023-01-28T18:40:16.591Z,7.30
2023-01-28T18:42:43.148Z,7.90
2023-01-28T18:45:10.111Z,6.35
2023-01-28T18:47:36.661Z,6.95
2023-01-28T18:50:04.093Z,7.93
2023-01-28T18:52:30.569Z,8.63
2023-01-28T18:54:57.638Z,5.95
2023-01-28T18:57:24.181Z,6.30
2023-01-28T18:59:50.732Z,5.55
2023-01-28T19:02:17.365Z,7.47
2023-01-28T19:04:43.998Z,5.90
2023-01-28T19:07:11.923Z,6.18
2023-01-28T19:09:38.750Z,7.07
2023-01-28T19:12:05.673Z,6.60
2023-01-28T19:14:32.308Z,6.35
2023-01-28T19:16:59.057Z,7.32
2023-01-28T19:19:25.790Z,7.18
2023-01-28T19:21:52.946Z,6.35
2023-01-28T19:24:19.498Z,6.30
2023-01-28T19:26:46.313Z,7.88
2023-01-28T19:29:16.226Z,7.22
2023-01-28T19:31:44.346Z,7.07
2023-01-28T19:34:11.189Z,5.30
2023-01-28T19:36:38.125Z,7.68
2023-01-28T19:39:07.070Z,7.13
2023-01-28T19:41:33.745Z,9.35
2023-01-28T19:44:00.579Z,8.43
2023-01-28T19:46:27.911Z,6.40
2023-01-28T19:48:54.853Z,8.05
2023-01-28T19:51:22.158Z,6.25
2023-01-28T19:53:52.500Z,5.70
2023-01-28T19:56:19.777Z,7.07
2023-01-28T19:58:46.383Z,7.50
2023-01-28T20:01:15.672Z,7.38
2023-01-28T20:03:43.122Z,7.20
2023-01-28T20:06:15.736Z,5.47
2023-01-28T20:08:43.041Z,6.60
2023-01-28T20:11:11.364Z,6.32
2023-01-28T20:13:39.255Z,5.53
2023-01-28T20:16:08.597Z,4.93
2023-01-28T20:18:35.668Z,5.40
2023-01-28T20:21:04.946Z,7.75
2023-01-28T20:23:31.634Z,8.20
2023-01-28T20:25:58.955Z,5.32
2023-01-28T20:28:25.922Z,6.05
2023-01-28T20:30:55.724Z,5.72
2023-01-28T20:33:22.728Z,5.28
2023-01-28T20:35:49.434Z,6.35
2023-01-28T20:38:15.951Z,6.28
2023-01-28T20:40:43.316Z,7.43
2023-01-28T20:43:10.754Z,4.80
2023-01-28T20:45:37.576Z,5.07
2023-01-28T20:48:04.467Z,4.78
2023-01-28T20:50:30.997Z,5.90
2023-01-28T20:52:58.124Z,5.78
2023-01-28T20:55:24.848Z,5.25
2023-01-28T20:57:52.274Z,6.35
2023-01-28T21:00:19.469Z,6.05
2023-01-28T21:02:46.202Z,5.63
2023-01-28T21:05:13.372Z,5.55
2023-01-28T21:07:39.923Z,6.53
2023-01-28T21:10:06.978Z,7.13
2023-01-28T21:12:34.693Z,8.65
2023-01-28T21:15:01.318Z,4.38
2023-01-28T21:17:27.980Z,6.38
2023-01-28T21:19:54.499Z,6.43
2023-01-28T21:22:21.041Z,6.63
2023-01-28T21:24:49.053Z,9.00
2023-01-28T21:27:15.830Z,7.97
2023-01-28T21:29:42.557Z,7.95
2023-01-28T21:32:09.300Z,6.88
2023-01-28T21:34:36.064Z,6.82
2023-01-28T21:37:02.641Z,7.13
2023-01-28T21:39:29.431Z,9.23
2023-01-28T21:41:56.136Z,10.90
2023-01-28T21:44:22.800Z,8.02
2023-01-28T21:46:49.417Z,9.18
2023-01-28T21:49:16.050Z,7.97
2023-01-28T21:51:48.151Z,9.95
2023-01-28T21:56:44.987Z,10.82
2023-01-28T21:59:27.849Z,6.78
2023-01-28T22:02:06.415Z,6.90
2023-01-28T22:04:39.333Z,8.55
2023-01-28T22:07:08.417Z,7.30
2023-01-28T22:09:35.353Z,9.95
2023-01-28T22:12:03.749Z,9.60
2023-01-28T22:14:30.377Z,10.23
2023-01-28T22:16:56.998Z,6.90
2023-01-28T22:19:23.620Z,8.20
2023-01-28T22:21:50.230Z,8.43
2023-01-28T22:24:22.427Z,8.05
2023-01-28T22:26:49.106Z,7.10
2023-01-28T22:29:16.675Z,5.97
2023-01-28T22:31:45.592Z,5.35
2023-01-28T22:34:12.272Z,6.05
2023-01-28T22:36:38.790Z,8.75
2023-01-28T22:39:06.797Z,5.68
2023-01-28T22:41:33.612Z,6.47
2023-01-28T22:44:03.828Z,6.75
2023-01-28T22:46:33.093Z,8.88
2023-01-28T22:48:59.908Z,8.05
2023-01-28T22:51:29.294Z,6.18
2023-01-28T22:53:56.127Z,6.20
2023-01-28T22:56:25.452Z,6.88
2023-01-28T22:59:00.257Z,5.68
2023-01-28T23:01:27.567Z,4.97
2023-01-28T23:03:56.231Z,4.68
2023-01-28T23:06:24.010Z,7.43
2023-01-28T23:08:51.738Z,5.70
2023-01-28T23:11:28.487Z,6.63
2023-01-28T23:14:16.205Z,5.15
2023-01-28T23:17:02.550Z,6.22
2023-01-28T23:19:47.621Z,7.82
2023-01-28T23:22:35.514Z,7.35
2023-01-28T23:25:02.044Z,5.03
2023-01-28T23:27:28.645Z,6.65
2023-01-28T23:29:55.151Z,4.88
2023-01-28T23:32:22.586Z,4.88
2023-01-28T23:34:49.300Z,4.65
2023-01-28T23:37:16.556Z,6.90
2023-01-28T23:39:43.334Z,6.60
2023-01-28T23:42:11.464Z,6.38
2023-01-28T23:44:38.057Z,6.93
2023-01-28T23:47:04.614Z,9.82
2023-01-28T23:49:31.293Z,8.07
2023-01-28T23:51:57.881Z,6.75
2023-01-28T23:54:24.390Z,4.63
2023-01-28T23:56:51.022Z,6.43
2023-01-28T23:59:18.346Z,6.35
